Tunkhannock, Pennsylvania
Current Conditions -  °F | °C
As of 6:54 AM on Friday 21 Nov 2014 (Local Time) from KAVP Reporting Station
Clear Clear  
Wind Chill: 10°   Ceiling: Unl
Heat Index: 20°   Visibility: 10mi
Dew Point:   Wind: 8mph
Humidity: 62%   Direction: 240°WSW
Pressure: 30.18"   Gusts: NA
Location:  41.54°N, 75.95°W
Report Text: KAVP 211154Z 24007KT 10SM CLR M07/M13 A3018 RMK AO2 SLP230 T10671128 11050 21067 53033
Loading
Personal Weather Stations






























Interactive Weather Map New forecast layout! Learn more

10-Day Weather Forecast

Advertisements
Track Severe Weather on mobile